createdAt,value
2023-03-07T00:03:02.923Z,2.10
2023-03-07T00:08:06.709Z,2.50
2023-03-07T00:13:10.404Z,2.50
2023-03-07T00:18:15.219Z,2.33
2023-03-07T00:28:21.756Z,2.30
2023-03-07T00:33:26.634Z,2.47
2023-03-07T00:38:30.988Z,2.07
2023-03-07T00:43:35.630Z,1.98
2023-03-07T00:48:41.422Z,2.17
2023-03-07T00:53:45.583Z,2.30
2023-03-07T00:58:49.805Z,1.90
2023-03-07T01:03:56.158Z,2.20
2023-03-07T01:09:01.888Z,1.90
2023-03-07T01:14:07.481Z,1.83
2023-03-07T01:19:14.212Z,1.77
2023-03-07T01:24:18.503Z,1.90
2023-03-07T01:29:22.039Z,2.15
2023-03-07T01:34:26.794Z,1.90
2023-03-07T01:39:30.424Z,1.80
2023-03-07T01:44:59.606Z,2.10
2023-03-07T01:50:09.347Z,2.23
2023-03-07T01:55:16.692Z,2.07
2023-03-07T02:00:26.554Z,1.90
2023-03-07T02:05:35.791Z,1.93
2023-03-07T02:10:40.340Z,1.87
2023-03-07T02:15:44.261Z,1.90
2023-03-07T02:20:59.042Z,1.80
2023-03-07T02:26:09.121Z,1.80
2023-03-07T02:31:14.062Z,1.80
2023-03-07T02:36:21.361Z,1.98
2023-03-07T02:41:29.647Z,1.70
2023-03-07T02:46:34.658Z,1.85
2023-03-07T02:51:38.063Z,1.80
2023-03-07T02:56:41.555Z,2.17
2023-03-07T03:01:46.593Z,1.90
2023-03-07T03:06:50.095Z,2.13
2023-03-07T03:11:53.451Z,1.80
2023-03-07T03:16:58.520Z,2.37
2023-03-07T03:22:02.285Z,2.17
2023-03-07T03:27:06.185Z,2.37
2023-03-07T03:32:11.470Z,2.50
2023-03-07T03:37:15.033Z,2.40
2023-03-07T03:42:18.516Z,2.25
2023-03-07T03:47:23.297Z,1.83
2023-03-07T03:57:29.705Z,1.92
2023-03-07T04:02:34.750Z,2.13
2023-03-07T04:07:38.409Z,1.98
2023-03-07T04:12:42.049Z,1.98
2023-03-07T04:17:46.783Z,2.20
2023-03-07T04:27:53.739Z,2.30
2023-03-07T04:32:58.751Z,2.40
2023-03-07T04:38:02.075Z,2.00
2023-03-07T04:43:06.257Z,2.30
2023-03-07T04:48:11.128Z,2.60
2023-03-07T04:58:18.005Z,2.77
2023-03-07T05:03:25.090Z,2.73
2023-03-07T05:08:28.693Z,2.40
2023-03-07T05:13:32.492Z,2.53
2023-03-07T05:18:37.497Z,3.00
2023-03-07T05:23:41.077Z,2.40
2023-03-07T05:28:44.443Z,2.42
2023-03-07T05:33:49.220Z,2.60
2023-03-07T05:38:54.191Z,2.58
2023-03-07T05:49:03.160Z,2.97
2023-03-07T05:59:13.024Z,2.88
2023-03-07T06:04:18.043Z,3.20
2023-03-07T06:09:22.460Z,3.03
2023-03-07T06:14:25.923Z,2.42
2023-03-07T06:19:31.272Z,3.15
2023-03-07T06:24:34.902Z,3.10
2023-03-07T06:29:38.520Z,2.83
2023-03-07T06:34:43.777Z,3.10
2023-03-07T06:39:47.246Z,3.42
2023-03-07T06:44:50.681Z,3.28
2023-03-07T06:49:55.899Z,3.10
2023-03-07T06:54:59.308Z,2.95
2023-03-07T07:00:02.933Z,3.42
2023-03-07T07:05:09.962Z,3.05
2023-03-07T07:10:13.888Z,3.65
2023-03-07T07:15:17.528Z,3.40
2023-03-07T07:20:22.622Z,3.05
2023-03-07T07:25:26.119Z,3.30
2023-03-07T07:30:29.593Z,3.13
2023-03-07T07:35:34.445Z,3.67
2023-03-07T07:40:38.058Z,3.08
2023-03-07T07:45:41.544Z,3.70
2023-03-07T07:50:47.332Z,3.60
2023-03-07T07:55:50.822Z,3.30
2023-03-07T08:00:54.320Z,4.47
2023-03-07T08:05:59.332Z,10.10
2023-03-07T08:11:02.885Z,6.90
2023-03-07T08:16:11.278Z,4.28
2023-03-07T08:21:16.238Z,4.28
2023-03-07T08:26:19.688Z,4.20
2023-03-07T08:31:25.361Z,3.88
2023-03-07T08:36:30.263Z,4.22
2023-03-07T08:41:33.904Z,5.07
2023-03-07T08:46:37.456Z,4.93
2023-03-07T08:51:42.505Z,6.07
2023-03-07T08:56:48.773Z,5.00
2023-03-07T09:01:52.295Z,4.32
2023-03-07T09:07:00.646Z,5.25
2023-03-07T09:12:05.649Z,5.70
2023-03-07T09:17:09.662Z,12.10
2023-03-07T09:22:14.697Z,5.47
2023-03-07T09:32:21.230Z,7.85
2023-03-07T09:37:26.022Z,5.05
2023-03-07T09:42:38.106Z,4.60
2023-03-07T09:48:00.439Z,4.75
2023-03-07T09:53:06.771Z,6.32
2023-03-07T09:58:19.932Z,6.90
2023-03-07T10:03:32.739Z,6.13
2023-03-07T10:08:38.738Z,5.82
2023-03-07T10:13:55.586Z,4.30
2023-03-07T10:19:11.440Z,4.25
2023-03-07T10:24:33.838Z,4.32
2023-03-07T10:29:46.170Z,4.65
2023-03-07T10:34:56.128Z,4.05
2023-03-07T10:40:04.817Z,4.78
2023-03-07T10:45:13.271Z,3.83
2023-03-07T10:50:33.432Z,3.78
2023-03-07T10:55:43.582Z,3.42
2023-03-07T11:00:58.804Z,4.18
2023-03-07T11:06:02.327Z,3.70
2023-03-07T11:11:07.181Z,3.90
2023-03-07T11:16:20.280Z,3.60
2023-03-07T11:21:30.820Z,3.65
2023-03-07T11:26:41.302Z,4.22
2023-03-07T11:31:54.095Z,4.38
2023-03-07T11:37:03.383Z,4.07
2023-03-07T11:42:17.108Z,3.80
2023-03-07T11:47:33.382Z,4.25
2023-03-07T11:53:04.973Z,3.85
2023-03-07T11:58:34.241Z,3.95
2023-03-07T12:04:01.341Z,4.07
2023-03-07T12:09:30.219Z,3.97
2023-03-07T12:14:43.819Z,4.05
2023-03-07T12:20:20.257Z,3.95
2023-03-07T12:25:26.795Z,4.13
2023-03-07T12:30:44.500Z,3.83
2023-03-07T12:35:53.507Z,3.42
2023-03-07T12:41:03.271Z,3.92
2023-03-07T12:46:16.760Z,4.05
2023-03-07T12:51:26.717Z,3.55
2023-03-07T12:56:39.164Z,4.03
2023-03-07T13:01:49.116Z,3.45
2023-03-07T13:06:55.225Z,3.50
2023-03-07T13:12:33.002Z,3.80
2023-03-07T13:18:02.917Z,3.97
2023-03-07T13:23:25.217Z,3.95
2023-03-07T13:28:53.122Z,3.72
2023-03-07T13:34:18.393Z,3.30
2023-03-07T13:44:42.323Z,3.33
2023-03-07T13:49:47.529Z,3.17
2023-03-07T13:54:52.569Z,2.50
2023-03-07T13:59:57.628Z,3.10
2023-03-07T14:05:04.725Z,3.00
2023-03-07T14:10:22.402Z,3.00
2023-03-07T14:15:33.673Z,2.70
2023-03-07T14:20:57.269Z,3.17
2023-03-07T14:26:10.805Z,3.10
2023-03-07T14:31:25.371Z,3.03
2023-03-07T14:36:32.404Z,3.13
2023-03-07T14:41:46.372Z,3.45
2023-03-07T14:47:01.807Z,3.72
2023-03-07T14:52:07.362Z,3.55
2023-03-07T14:57:20.744Z,3.42
2023-03-07T15:02:24.148Z,3.45
2023-03-07T15:07:28.895Z,3.92
2023-03-07T15:12:32.366Z,3.83
2023-03-07T15:17:43.919Z,3.33
2023-03-07T15:22:49.447Z,3.30
2023-03-07T15:28:00.921Z,3.15
2023-03-07T15:33:06.716Z,2.80
2023-03-07T15:38:17.265Z,3.28
2023-03-07T15:43:29.200Z,4.05
2023-03-07T15:48:43.455Z,3.42
2023-03-07T15:53:57.626Z,3.70
2023-03-07T15:59:04.591Z,3.38
2023-03-07T16:04:08.075Z,3.78
2023-03-07T16:09:14.636Z,3.58
2023-03-07T16:14:25.450Z,4.32
2023-03-07T16:19:29.449Z,3.63
2023-03-07T16:24:34.461Z,4.00
2023-03-07T16:29:38.033Z,3.45
2023-03-07T16:34:43.363Z,2.97
2023-03-07T16:39:49.104Z,3.33
2023-03-07T16:44:53.132Z,3.90
2023-03-07T16:49:56.720Z,3.13
2023-03-07T16:55:01.498Z,3.22
2023-03-07T17:00:08.516Z,3.47
2023-03-07T17:05:17.896Z,3.70
2023-03-07T17:10:23.617Z,3.40
2023-03-07T17:15:31.344Z,3.78
2023-03-07T17:20:35.065Z,4.10
2023-03-07T17:25:40.095Z,3.70
2023-03-07T17:30:45.822Z,3.83
2023-03-07T17:35:49.457Z,3.60
2023-03-07T17:40:56.705Z,4.10
2023-03-07T17:46:00.198Z,3.50
2023-03-07T17:51:04.162Z,3.75
2023-03-07T17:56:09.881Z,4.13
2023-03-07T18:01:15.408Z,3.55
2023-03-07T18:06:20.429Z,3.63
2023-03-07T18:11:25.390Z,3.38
2023-03-07T18:16:28.861Z,3.95
2023-03-07T18:21:32.297Z,4.28
2023-03-07T18:26:37.096Z,3.90
2023-03-07T18:31:40.736Z,3.40
2023-03-07T18:36:44.876Z,4.93
2023-03-07T18:41:50.736Z,4.47
2023-03-07T18:46:54.156Z,4.40
2023-03-07T18:51:57.692Z,5.03
2023-03-07T18:57:02.457Z,5.72
2023-03-07T19:07:09.418Z,5.20
2023-03-07T19:12:14.260Z,5.35
2023-03-07T19:22:26.412Z,4.55
2023-03-07T19:27:32.262Z,5.20
2023-03-07T19:32:35.784Z,4.88
2023-03-07T19:37:39.350Z,5.18
2023-03-07T19:42:44.218Z,5.38
2023-03-07T19:47:47.797Z,6.38
2023-03-07T19:52:51.308Z,5.88
2023-03-07T19:57:56.111Z,6.05
2023-03-07T20:03:00.337Z,5.40
2023-03-07T20:08:03.836Z,5.78
2023-03-07T20:13:09.575Z,6.40
2023-03-07T20:18:13.852Z,6.25
2023-03-07T20:23:17.268Z,6.13
2023-03-07T20:28:22.728Z,6.60
2023-03-07T20:33:26.669Z,5.90
2023-03-07T20:38:30.023Z,6.00
2023-03-07T20:43:35.240Z,6.40
2023-03-07T20:48:39.170Z,5.40
2023-03-07T20:53:42.638Z,6.20
2023-03-07T20:58:47.738Z,6.07
2023-03-07T21:03:52.676Z,6.70
2023-03-07T21:08:56.394Z,6.60
2023-03-07T21:14:01.603Z,7.17
2023-03-07T21:19:07.028Z,7.47
2023-03-07T21:24:12.560Z,7.07
2023-03-07T21:29:17.543Z,6.83
2023-03-07T21:34:21.099Z,7.37
2023-03-07T21:39:25.719Z,6.90
2023-03-07T21:49:34.297Z,7.70
2023-03-07T21:54:37.822Z,8.18
2023-03-07T21:59:42.713Z,8.33
2023-03-07T22:04:46.144Z,8.50
2023-03-07T22:09:49.533Z,7.40
2023-03-07T22:14:54.496Z,7.53
2023-03-07T22:19:57.991Z,7.77
2023-03-07T22:25:01.507Z,7.70
2023-03-07T22:30:10.304Z,7.07
2023-03-07T22:35:13.729Z,7.07
2023-03-07T22:40:17.393Z,8.37
2023-03-07T22:45:22.422Z,8.50
2023-03-07T22:50:26.253Z,8.97
2023-03-07T22:55:29.721Z,8.93
2023-03-07T23:00:34.448Z,8.47
2023-03-07T23:05:38.438Z,8.30
2023-03-07T23:10:41.792Z,9.05
2023-03-07T23:15:46.881Z,8.90
2023-03-07T23:20:50.251Z,9.77
2023-03-07T23:25:53.729Z,9.47
2023-03-07T23:30:58.615Z,9.70
2023-03-07T23:36:02.388Z,9.93
2023-03-07T23:41:06.023Z,9.03
2023-03-07T23:46:12.439Z,9.77
2023-03-07T23:51:16.116Z,9.43
2023-03-07T23:56:19.572Z,9.73
